Time;durP1;ratioP1;P1;durP2;ratioP2;P2;SDS_P1;SDS_P2;PMS_P1;PMS_P2;Temp;Humidity;BMP_temperature;BMP_pressure;BME280_temperature;BME280_humidity;BME280_pressure;Samples;Min_cycle;Max_cycle;Signal;HPM_P1;HPM_P2
2021/06/15 00:00:21;;;;;;;;;;;19.80;91.30;;;;;;5093274;28;19995;-64
2021/06/15 00:02:47;;;;;;;;;;;19.80;91.40;;;;;;5093934;28;19954;-64
2021/06/15 00:05:13;;;;;;;;;;;19.80;91.40;;;;;;5093310;28;19912;-64
2021/06/15 00:07:39;;;;;;;;;;;19.80;91.40;;;;;;5093160;28;20014;-65
2021/06/15 00:10:06;;;;;;;;;;;19.80;91.60;;;;;;5093093;28;19995;-64
2021/06/15 00:12:32;;;;;;;;;;;19.80;91.60;;;;;;5093124;28;20006;-64
2021/06/15 00:14:57;;;;;;;;;;;19.80;91.70;;;;;;5092996;28;20371;-64
2021/06/15 00:17:23;;;;;;;;;;;19.80;91.90;;;;;;5092910;28;19908;-65
2021/06/15 00:19:48;;;;;;;;;;;19.80;92.00;;;;;;5092987;28;19904;-65
2021/06/15 00:22:14;;;;;;;;;;;19.80;92.10;;;;;;5093070;28;19904;-64
2021/06/15 00:24:39;;;;;;;;;;;19.70;92.40;;;;;;5093531;28;20317;-64
2021/06/15 00:27:05;;;;;;;;;;;19.70;92.50;;;;;;5096826;28;19910;-64
2021/06/15 00:29:30;;;;;;;;;;;19.70;92.60;;;;;;5096672;28;19915;-64
2021/06/15 00:31:56;;;;;;;;;;;19.60;92.70;;;;;;5096768;28;20357;-64
2021/06/15 00:34:21;;;;;;;;;;;19.60;92.70;;;;;;5096481;28;19908;-64
2021/06/15 00:36:47;;;;;;;;;;;19.50;92.90;;;;;;5096549;28;20019;-64
2021/06/15 00:39:12;;;;;;;;;;;19.50;93.10;;;;;;5096293;28;19904;-64
2021/06/15 00:41:38;;;;;;;;;;;19.50;93.20;;;;;;5096702;28;19930;-64
2021/06/15 00:44:06;;;;;;;;;;;19.50;93.40;;;;;;5096308;28;19958;-64
2021/06/15 00:46:32;;;;;;;;;;;19.60;93.50;;;;;;5096324;28;20427;-64
2021/06/15 00:48:57;;;;;;;;;;;19.60;93.40;;;;;;5096401;28;19950;-64
2021/06/15 00:51:23;;;;;;;;;;;19.50;93.30;;;;;;5096214;28;19911;-64
2021/06/15 00:53:49;;;;;;;;;;;19.50;93.30;;;;;;5096189;28;19911;-63
2021/06/15 00:56:14;;;;;;;;;;;19.50;93.40;;;;;;5096147;28;19904;-64
2021/06/15 00:58:40;;;;;;;;;;;19.50;93.50;;;;;;5096286;28;19904;-64
2021/06/15 01:01:07;;;;;;;;;;;19.50;93.60;;;;;;5096101;28;20361;-63
2021/06/15 01:03:33;;;;;;;;;;;19.50;93.70;;;;;;5095711;28;20364;-64
2021/06/15 01:06:02;;;;;;;;;;;19.40;93.70;;;;;;5095937;28;19911;-63
2021/06/15 01:08:36;;;;;;;;;;;19.40;93.90;;;;;;5096321;28;19904;-64
2021/06/15 01:11:02;;;;;;;;;;;19.40;93.90;;;;;;5095790;28;19911;-64
2021/06/15 01:13:38;;;;;;;;;;;19.40;94.00;;;;;;5096126;28;19903;-64
2021/06/15 01:16:12;;;;;;;;;;;19.30;94.10;;;;;;5095868;28;19947;-64
2021/06/15 01:18:41;;;;;;;;;;;19.30;94.20;;;;;;5095758;28;19908;-64
2021/06/15 01:21:08;;;;;;;;;;;19.30;94.40;;;;;;5095641;28;19915;-64
2021/06/15 01:23:44;;;;;;;;;;;19.20;94.50;;;;;;5095207;28;19911;-64
2021/06/15 01:26:16;;;;;;;;;;;19.20;94.50;;;;;;5095589;28;19904;-64
2021/06/15 01:28:43;;;;;;;;;;;19.20;94.60;;;;;;5095385;28;19911;-65
2021/06/15 01:31:13;;;;;;;;;;;19.10;94.60;;;;;;5095631;28;20414;-64
2021/06/15 01:33:44;;;;;;;;;;;19.00;94.70;;;;;;5095220;28;19911;-64
2021/06/15 01:36:11;;;;;;;;;;;18.90;94.70;;;;;;5095574;28;19904;-65
2021/06/15 01:38:42;;;;;;;;;;;18.80;94.80;;;;;;5094440;28;19904;-64
2021/06/15 01:41:09;;;;;;;;;;;18.70;95.00;;;;;;5095087;28;19904;-64
2021/06/15 01:43:40;;;;;;;;;;;18.60;95.20;;;;;;5095208;28;20003;-65
2021/06/15 01:46:08;;;;;;;;;;;18.40;95.50;;;;;;5095047;28;19911;-64
2021/06/15 01:48:43;;;;;;;;;;;18.30;95.90;;;;;;5095151;28;19904;-64
2021/06/15 01:51:10;;;;;;;;;;;18.20;96.20;;;;;;5094856;28;19904;-64
2021/06/15 01:53:39;;;;;;;;;;;18.00;96.60;;;;;;5094897;28;19905;-63
2021/06/15 01:56:05;;;;;;;;;;;18.00;96.80;;;;;;5094816;28;19954;-64
2021/06/15 01:58:35;;;;;;;;;;;17.90;96.90;;;;;;5094936;28;19908;-64
2021/06/15 02:01:01;;;;;;;;;;;17.90;97.00;;;;;;5094687;28;20053;-64
2021/06/15 02:03:28;;;;;;;;;;;18.00;97.10;;;;;;5094673;28;20337;-65
2021/06/15 02:05:55;;;;;;;;;;;18.00;97.10;;;;;;5094577;28;19911;-64
2021/06/15 02:08:24;;;;;;;;;;;18.00;97.20;;;;;;5094921;28;19904;-64
2021/06/15 02:10:50;;;;;;;;;;;17.90;97.30;;;;;;5094595;28;19908;-64
2021/06/15 02:13:16;;;;;;;;;;;17.90;97.50;;;;;;5094808;28;19916;-64
2021/06/15 02:15:42;;;;;;;;;;;17.80;97.80;;;;;;5095907;28;19982;-64
2021/06/15 02:18:08;;;;;;;;;;;17.70;98.10;;;;;;5096011;28;19904;-63
2021/06/15 02:20:37;;;;;;;;;;;17.70;98.20;;;;;;5095101;28;19904;-64
2021/06/15 02:23:03;;;;;;;;;;;17.70;98.20;;;;;;5094528;28;19970;-65
2021/06/15 02:25:32;;;;;;;;;;;17.80;98.20;;;;;;5094161;28;19908;-64
2021/06/15 02:27:58;;;;;;;;;;;17.90;98.20;;;;;;5094483;28;19904;-64
2021/06/15 02:30:24;;;;;;;;;;;17.90;98.20;;;;;;5092403;28;19965;-65
2021/06/15 02:32:50;;;;;;;;;;;17.90;98.20;;;;;;5092850;28;19950;-64
2021/06/15 02:35:20;;;;;;;;;;;18.00;98.30;;;;;;5094422;28;19904;-65
2021/06/15 02:37:51;;;;;;;;;;;18.00;98.20;;;;;;5092778;28;19962;-64
2021/06/15 02:40:17;;;;;;;;;;;18.00;98.10;;;;;;5092734;28;19907;-64
2021/06/15 02:42:44;;;;;;;;;;;18.00;98.20;;;;;;5092622;28;20002;-63
2021/06/15 02:45:11;;;;;;;;;;;18.00;98.30;;;;;;5094509;28;19915;-64
2021/06/15 02:47:37;;;;;;;;;;;18.00;98.50;;;;;;5092882;28;20198;-64
2021/06/15 02:50:04;;;;;;;;;;;18.00;98.50;;;;;;5093543;28;20474;-64
2021/06/15 02:52:29;;;;;;;;;;;18.00;98.50;;;;;;5093651;28;20361;-64
2021/06/15 02:55:00;;;;;;;;;;;18.00;98.50;;;;;;5094509;28;19911;-64
2021/06/15 02:57:26;;;;;;;;;;;17.90;98.60;;;;;;5093930;28;19930;-64
2021/06/15 02:59:52;;;;;;;;;;;17.90;98.60;;;;;;5093546;28;19904;-64
2021/06/15 03:02:18;;;;;;;;;;;17.90;98.80;;;;;;5093664;28;20311;-64
2021/06/15 03:04:46;;;;;;;;;;;17.80;98.90;;;;;;5093530;28;19912;-64
2021/06/15 03:07:12;;;;;;;;;;;17.80;99.00;;;;;;5093618;28;19904;-65
2021/06/15 03:09:37;;;;;;;;;;;17.70;99.00;;;;;;5092309;28;19950;-65
2021/06/15 03:12:06;;;;;;;;;;;17.80;99.00;;;;;;5093676;28;20376;-64
2021/06/15 03:14:32;;;;;;;;;;;17.70;99.10;;;;;;5093959;28;19904;-64
2021/06/15 03:17:00;;;;;;;;;;;17.60;99.30;;;;;;5093632;28;20029;-64
2021/06/15 03:19:26;;;;;;;;;;;17.50;99.40;;;;;;5092860;28;19911;-64
2021/06/15 03:21:59;;;;;;;;;;;17.30;99.80;;;;;;5094958;28;19908;-64
2021/06/15 03:24:26;;;;;;;;;;;17.10;99.90;;;;;;5093533;28;19944;-65
2021/06/15 03:27:12;;;;;;;;;;;16.90;99.90;;;;;;5093566;28;19982;-65
2021/06/15 03:29:39;;;;;;;;;;;16.90;99.90;;;;;;5093115;28;19962;-64
2021/06/15 03:32:07;;;;;;;;;;;16.90;99.90;;;;;;5093530;28;19911;-64
2021/06/15 03:34:34;;;;;;;;;;;16.90;99.90;;;;;;5093635;28;19907;-64
2021/06/15 03:37:00;;;;;;;;;;;17.00;99.90;;;;;;5093236;28;19904;-64
2021/06/15 03:39:29;;;;;;;;;;;16.90;99.90;;;;;;5093155;28;19927;-64
2021/06/15 03:41:56;;;;;;;;;;;16.90;99.90;;;;;;5093310;28;19911;-63
2021/06/15 03:44:22;;;;;;;;;;;16.80;99.90;;;;;;5093775;28;20022;-63
2021/06/15 03:46:52;;;;;;;;;;;16.70;99.90;;;;;;5093363;28;19904;-64
2021/06/15 03:49:20;;;;;;;;;;;16.60;99.90;;;;;;5093033;28;19904;-64
2021/06/15 03:51:48;;;;;;;;;;;16.60;99.90;;;;;;5093215;28;19911;-64
2021/06/15 03:54:14;;;;;;;;;;;16.60;99.90;;;;;;5093356;28;19904;-64
2021/06/15 03:56:41;;;;;;;;;;;16.60;99.90;;;;;;5093067;28;19904;-64
2021/06/15 03:59:08;;;;;;;;;;;16.60;99.90;;;;;;5093287;28;19904;-64
2021/06/15 04:01:35;;;;;;;;;;;16.60;99.90;;;;;;5095468;28;20301;-64
2021/06/15 04:04:10;;;;;;;;;;;16.60;99.90;;;;;;5096974;28;19908;-65
2021/06/15 04:06:40;;;;;;;;;;;16.60;99.90;;;;;;5097377;28;20379;-64
2021/06/15 04:09:07;;;;;;;;;;;16.60;99.90;;;;;;5097175;28;19914;-65
2021/06/15 04:11:35;;;;;;;;;;;16.60;99.90;;;;;;5096957;28;19908;-64
2021/06/15 04:14:01;;;;;;;;;;;16.60;99.90;;;;;;5097088;28;19957;-65
2021/06/15 04:16:27;;;;;;;;;;;16.60;99.90;;;;;;5096704;28;19911;-65
2021/06/15 04:18:54;;;;;;;;;;;16.60;99.90;;;;;;5096820;28;20002;-64
2021/06/15 04:21:20;;;;;;;;;;;16.60;99.90;;;;;;5096569;28;20345;-63
2021/06/15 04:23:48;;;;;;;;;;;16.60;99.90;;;;;;5096960;28;19915;-64
2021/06/15 04:26:14;;;;;;;;;;;16.60;99.90;;;;;;5096864;28;19904;-64
2021/06/15 04:28:39;;;;;;;;;;;16.50;99.90;;;;;;5097631;28;20383;-64
2021/06/15 04:31:05;;;;;;;;;;;16.50;99.90;;;;;;5097958;28;19907;-63
2021/06/15 04:33:32;;;;;;;;;;;16.50;99.90;;;;;;5098244;28;19925;-64
2021/06/15 04:35:59;;;;;;;;;;;16.60;99.90;;;;;;5096709;28;20353;-64
2021/06/15 04:38:33;;;;;;;;;;;16.60;99.90;;;;;;5097312;28;19911;-64
2021/06/15 04:41:04;;;;;;;;;;;16.60;99.90;;;;;;5096252;28;20318;-64
2021/06/15 04:43:32;;;;;;;;;;;16.70;99.90;;;;;;5096028;28;19904;-63
2021/06/15 04:46:10;;;;;;;;;;;16.70;99.90;;;;;;5096203;28;20381;-64
2021/06/15 04:48:37;;;;;;;;;;;16.80;99.90;;;;;;5096142;28;19936;-64
2021/06/15 04:51:03;;;;;;;;;;;16.80;99.90;;;;;;5096389;28;19908;-64
2021/06/15 04:53:30;;;;;;;;;;;16.90;99.90;;;;;;5096203;28;19922;-64
2021/06/15 04:55:56;;;;;;;;;;;17.00;99.90;;;;;;5096450;28;19911;-63
2021/06/15 04:58:22;;;;;;;;;;;17.00;99.90;;;;;;5096129;28;19908;-63
2021/06/15 05:00:50;;;;;;;;;;;17.10;99.90;;;;;;5095732;28;20357;-64
2021/06/15 05:03:18;;;;;;;;;;;17.20;99.90;;;;;;5095558;28;19927;-64
2021/06/15 05:05:44;;;;;;;;;;;17.30;99.90;;;;;;5095961;28;20337;-64
2021/06/15 05:08:14;;;;;;;;;;;17.40;99.90;;;;;;5094385;28;19904;-65
2021/06/15 05:10:41;;;;;;;;;;;17.50;99.90;;;;;;5096054;28;19911;-64
2021/06/15 05:13:09;;;;;;;;;;;17.60;99.90;;;;;;5094137;28;19911;-64
2021/06/15 05:15:35;;;;;;;;;;;17.70;99.90;;;;;;5094113;28;20011;-64
2021/06/15 05:18:01;;;;;;;;;;;17.70;99.90;;;;;;5095628;28;20406;-64
2021/06/15 05:20:26;;;;;;;;;;;17.80;99.90;;;;;;5095145;28;20315;-61
2021/06/15 05:23:02;;;;;;;;;;;17.90;99.90;;;;;;5095393;28;19908;-61
2021/06/15 05:25:28;;;;;;;;;;;18.00;99.90;;;;;;5095135;28;19970;-59
2021/06/15 05:27:53;;;;;;;;;;;18.10;99.90;;;;;;5094216;28;20364;-61
2021/06/15 05:30:23;;;;;;;;;;;18.20;99.90;;;;;;5094379;28;19915;-61
2021/06/15 05:32:49;;;;;;;;;;;18.30;99.90;;;;;;5093224;28;19998;-63
2021/06/15 05:35:14;;;;;;;;;;;18.40;99.80;;;;;;5095092;28;19936;-64
2021/06/15 05:37:40;;;;;;;;;;;18.50;99.50;;;;;;5094850;28;19904;-63
2021/06/15 05:40:06;;;;;;;;;;;18.70;98.80;;;;;;5094668;28;20448;-63
2021/06/15 05:42:32;;;;;;;;;;;18.80;98.40;;;;;;5094601;28;19951;-63
2021/06/15 05:44:57;;;;;;;;;;;19.00;98.20;;;;;;5094844;28;20010;-64
2021/06/15 05:47:23;;;;;;;;;;;19.10;97.90;;;;;;5094681;28;19940;-63
2021/06/15 05:49:48;;;;;;;;;;;19.10;97.70;;;;;;5093304;28;19907;-66
2021/06/15 05:52:14;;;;;;;;;;;19.20;97.40;;;;;;5094767;28;19904;-66
2021/06/15 05:54:40;;;;;;;;;;;19.30;97.50;;;;;;5093931;28;20004;-66
2021/06/15 05:57:06;;;;;;;;;;;19.30;97.00;;;;;;5095004;28;19911;-67
2021/06/15 05:59:32;;;;;;;;;;;19.40;97.40;;;;;;5094888;28;19950;-67
2021/06/15 06:01:58;;;;;;;;;;;19.40;97.60;;;;;;5094579;28;19904;-66
2021/06/15 06:04:29;;;;;;;;;;;19.40;97.60;;;;;;5094405;28;19908;-67
2021/06/15 06:09:40;;;;;;;;;;;19.50;97.60;;;;;;5095222;28;20249;-66
2021/06/15 06:12:06;;;;;;;;;;;19.50;97.60;;;;;;5094488;28;19904;-66
2021/06/15 06:14:32;;;;;;;;;;;19.60;97.60;;;;;;5094583;28;20057;-66
2021/06/15 06:16:58;;;;;;;;;;;19.70;97.40;;;;;;5094441;28;19911;-66
2021/06/15 06:19:23;;;;;;;;;;;19.70;97.20;;;;;;5094263;28;19945;-66
2021/06/15 06:21:49;;;;;;;;;;;19.70;97.30;;;;;;5094095;28;19943;-66
2021/06/15 06:24:17;;;;;;;;;;;19.80;97.40;;;;;;5093907;28;19943;-65
2021/06/15 06:26:43;;;;;;;;;;;19.90;97.30;;;;;;5094171;28;19968;-66
2021/06/15 06:29:08;;;;;;;;;;;19.90;97.10;;;;;;5093906;28;19915;-66
2021/06/15 06:31:34;;;;;;;;;;;20.00;96.90;;;;;;5094127;28;19904;-66
2021/06/15 06:33:59;;;;;;;;;;;20.10;96.70;;;;;;5093969;28;19904;-66
2021/06/15 06:36:25;;;;;;;;;;;20.10;96.60;;;;;;5094296;28;19904;-68
2021/06/15 06:38:52;;;;;;;;;;;20.20;96.10;;;;;;5093867;28;19908;-67
2021/06/15 06:41:18;;;;;;;;;;;20.30;96.10;;;;;;5093860;28;19904;-66
2021/06/15 06:43:43;;;;;;;;;;;20.50;96.00;;;;;;5093661;28;19903;-68
2021/06/15 06:46:09;;;;;;;;;;;20.50;95.10;;;;;;5092426;28;20349;-68
2021/06/15 06:48:34;;;;;;;;;;;20.70;94.90;;;;;;5093570;28;19904;-67
2021/06/15 06:51:00;;;;;;;;;;;20.80;94.80;;;;;;5093686;28;19904;-66
2021/06/15 06:53:25;;;;;;;;;;;20.80;94.70;;;;;;5093499;28;19926;-66
2021/06/15 06:55:51;;;;;;;;;;;20.90;94.60;;;;;;5092651;28;19960;-68
2021/06/15 06:58:17;;;;;;;;;;;21.00;94.70;;;;;;5095915;28;19904;-66
2021/06/15 07:00:42;;;;;;;;;;;21.10;94.20;;;;;;5093535;28;19908;-67
2021/06/15 07:03:08;;;;;;;;;;;21.30;94.20;;;;;;5093804;28;19925;-67
2021/06/15 07:05:33;;;;;;;;;;;21.40;93.70;;;;;;5093454;28;19937;-67
2021/06/15 07:07:59;;;;;;;;;;;21.50;93.60;;;;;;5093719;28;19976;-67
2021/06/15 07:10:24;;;;;;;;;;;21.60;93.80;;;;;;5093138;28;19989;-67
2021/06/15 07:12:50;;;;;;;;;;;21.70;93.40;;;;;;5093746;28;19904;-67
2021/06/15 07:15:15;;;;;;;;;;;21.70;93.30;;;;;;5093725;28;19910;-67
2021/06/15 07:17:41;;;;;;;;;;;21.90;93.00;;;;;;5093426;28;19999;-67
2021/06/15 07:20:07;;;;;;;;;;;22.00;92.30;;;;;;5093267;28;19926;-67
2021/06/15 07:22:32;;;;;;;;;;;22.10;92.10;;;;;;5093626;28;19959;-67
2021/06/15 07:24:58;;;;;;;;;;;22.10;91.90;;;;;;5093491;28;19912;-67
2021/06/15 07:27:24;;;;;;;;;;;22.20;91.90;;;;;;5093485;28;19943;-68
2021/06/15 07:29:49;;;;;;;;;;;22.30;92.10;;;;;;5109070;28;19912;-67
2021/06/15 07:32:15;;;;;;;;;;;22.40;91.90;;;;;;5093927;28;19904;-67
2021/06/15 07:34:40;;;;;;;;;;;22.50;91.90;;;;;;5092010;28;19911;-67
2021/06/15 07:37:06;;;;;;;;;;;22.60;91.80;;;;;;5096704;28;20392;-67
2021/06/15 07:39:31;;;;;;;;;;;22.70;91.70;;;;;;5097706;28;20340;-67
2021/06/15 07:41:57;;;;;;;;;;;22.80;91.80;;;;;;5096096;28;19953;-68
2021/06/15 07:44:22;;;;;;;;;;;23.30;91.60;;;;;;5097345;28;19912;-68
2021/06/15 07:46:48;;;;;;;;;;;24.50;90.30;;;;;;5097221;28;19911;-68
2021/06/15 07:49:13;;;;;;;;;;;26.10;87.20;;;;;;5097011;28;19969;-67
2021/06/15 07:51:39;;;;;;;;;;;27.60;82.00;;;;;;5095653;28;20314;-68
2021/06/15 07:54:05;;;;;;;;;;;28.30;80.10;;;;;;5097213;28;19948;-67
2021/06/15 07:56:31;;;;;;;;;;;28.80;78.90;;;;;;5097434;28;19904;-67
2021/06/15 07:58:56;;;;;;;;;;;28.80;77.20;;;;;;5097330;28;19933;-67
2021/06/15 08:01:22;;;;;;;;;;;28.50;76.60;;;;;;5097045;28;19912;-69
2021/06/15 08:03:47;;;;;;;;;;;28.20;77.20;;;;;;5096903;28;20361;-67
2021/06/15 08:06:13;;;;;;;;;;;28.40;77.90;;;;;;5096984;28;20349;-68
2021/06/15 08:08:38;;;;;;;;;;;29.20;77.00;;;;;;5096507;28;19904;-68
2021/06/15 08:11:04;;;;;;;;;;;30.20;74.10;;;;;;5096595;28;19984;-66
2021/06/15 08:13:30;;;;;;;;;;;31.00;72.60;;;;;;5096524;28;19915;-67
2021/06/15 08:15:56;;;;;;;;;;;32.10;70.40;;;;;;5096794;28;19904;-67
2021/06/15 08:18:21;;;;;;;;;;;33.00;68.80;;;;;;5095322;28;19908;-67
2021/06/15 08:20:50;;;;;;;;;;;34.20;66.00;;;;;;5095398;28;19904;-67
2021/06/15 08:23:16;;;;;;;;;;;34.60;63.60;;;;;;5097153;28;20125;-67
2021/06/15 08:25:43;;;;;;;;;;;35.00;62.60;;;;;;5096375;28;19954;-68
2021/06/15 08:28:09;;;;;;;;;;;35.80;60.50;;;;;;5096428;28;19904;-68
2021/06/15 08:30:34;;;;;;;;;;;36.40;59.50;;;;;;5094723;28;20396;-69
2021/06/15 08:33:00;;;;;;;;;;;37.00;57.60;;;;;;5096402;28;19904;-68
2021/06/15 08:35:26;;;;;;;;;;;37.30;56.40;;;;;;5096262;28;19943;-68
2021/06/15 08:37:51;;;;;;;;;;;38.10;55.10;;;;;;5096341;28;19904;-65
2021/06/15 08:40:17;;;;;;;;;;;38.90;53.80;;;;;;5096527;28;20352;-65
2021/06/15 08:42:43;;;;;;;;;;;39.70;52.30;;;;;;5096166;28;19915;-65
2021/06/15 08:45:10;;;;;;;;;;;40.20;51.20;;;;;;5096102;28;19908;-65
2021/06/15 08:47:39;;;;;;;;;;;41.30;49.50;;;;;;5096313;28;19911;-65
2021/06/15 08:50:06;;;;;;;;;;;42.00;48.50;;;;;;5096041;28;19911;-64
2021/06/15 08:52:31;;;;;;;;;;;42.60;47.10;;;;;;5094748;28;19904;-65
2021/06/15 08:54:58;;;;;;;;;;;43.20;46.00;;;;;;5094943;28;19930;-64
2021/06/15 08:57:24;;;;;;;;;;;43.20;45.70;;;;;;5096198;28;20415;-64
2021/06/15 08:59:49;;;;;;;;;;;43.00;45.40;;;;;;5094638;28;19904;-64
2021/06/15 09:02:15;;;;;;;;;;;43.00;44.80;;;;;;5096016;28;19904;-64
2021/06/15 09:04:41;;;;;;;;;;;43.00;44.30;;;;;;5096279;28;19908;-64
2021/06/15 09:07:06;;;;;;;;;;;41.50;44.40;;;;;;5096218;28;19951;-64
2021/06/15 09:09:42;;;;;;;;;;;40.60;45.10;;;;;;5095528;28;19907;-65
2021/06/15 09:12:11;;;;;;;;;;;40.30;44.90;;;;;;5096201;28;19994;-65
2021/06/15 09:14:38;;;;;;;;;;;41.00;44.80;;;;;;5096391;28;19911;-64
2021/06/15 09:17:04;;;;;;;;;;;40.50;45.80;;;;;;5095764;28;19911;-64
2021/06/15 09:19:35;;;;;;;;;;;40.60;45.70;;;;;;5095693;28;20288;-65
2021/06/15 09:22:00;;;;;;;;;;;41.20;45.60;;;;;;5095903;28;19903;-64
2021/06/15 09:24:26;;;;;;;;;;;42.10;44.60;;;;;;5095629;28;20371;-65
2021/06/15 09:27:10;;;;;;;;;;;42.20;43.80;;;;;;5095663;28;20372;-64
2021/06/15 09:29:37;;;;;;;;;;;42.20;44.00;;;;;;5093912;28;20023;-64
2021/06/15 09:32:03;;;;;;;;;;;41.80;43.20;;;;;;5095176;28;19908;-65
2021/06/15 09:34:28;;;;;;;;;;;41.20;44.30;;;;;;5095066;28;19904;-64
2021/06/15 09:36:54;;;;;;;;;;;41.50;43.70;;;;;;5095130;28;19904;-64
2021/06/15 09:39:19;;;;;;;;;;;41.90;43.40;;;;;;5094944;28;20337;-64
2021/06/15 09:41:46;;;;;;;;;;;41.70;43.20;;;;;;5095078;28;20379;-63
2021/06/15 09:44:13;;;;;;;;;;;41.90;43.20;;;;;;5093916;28;19908;-65
2021/06/15 09:46:46;;;;;;;;;;;42.30;43.00;;;;;;5094981;28;19904;-65
2021/06/15 09:49:13;;;;;;;;;;;41.80;42.90;;;;;;5094500;28;20344;-64
2021/06/15 09:51:39;;;;;;;;;;;39.70;44.30;;;;;;5094244;28;20295;-64
2021/06/15 09:54:05;;;;;;;;;;;39.90;44.30;;;;;;5094548;28;19904;-65
2021/06/15 09:56:31;;;;;;;;;;;39.30;44.80;;;;;;5094795;28;19904;-64
2021/06/15 09:58:58;;;;;;;;;;;39.50;44.90;;;;;;5093786;28;19954;-64
2021/06/15 10:01:32;;;;;;;;;;;40.20;45.20;;;;;;5093204;28;19904;-64
2021/06/15 10:04:17;;;;;;;;;;;41.10;44.70;;;;;;5094567;28;19908;-65
2021/06/15 10:06:46;;;;;;;;;;;41.70;44.40;;;;;;5094770;28;19969;-64
2021/06/15 10:09:12;;;;;;;;;;;42.00;44.00;;;;;;5094596;28;19911;-64
2021/06/15 10:11:38;;;;;;;;;;;41.00;44.70;;;;;;5094772;28;19904;-66
2021/06/15 10:14:04;;;;;;;;;;;40.50;45.20;;;;;;5094930;28;19904;-65
2021/06/15 10:16:29;;;;;;;;;;;40.60;45.30;;;;;;5094810;28;20379;-64
2021/06/15 10:18:57;;;;;;;;;;;39.30;43.50;;;;;;5094903;28;20272;-64
2021/06/15 10:21:22;;;;;;;;;;;37.30;42.80;;;;;;5095369;28;20288;-64
2021/06/15 10:23:48;;;;;;;;;;;36.10;44.60;;;;;;5095024;28;19904;-64
2021/06/15 10:26:14;;;;;;;;;;;35.10;45.90;;;;;;5094978;28;19904;-65
2021/06/15 10:28:39;;;;;;;;;;;35.10;47.00;;;;;;5095427;28;19953;-63
2021/06/15 10:31:05;;;;;;;;;;;35.40;46.40;;;;;;5095472;28;20348;-64
2021/06/15 10:33:44;;;;;;;;;;;33.70;47.80;;;;;;5095634;28;19904;-64
2021/06/15 10:36:10;;;;;;;;;;;33.00;49.40;;;;;;5095638;28;20291;-65
2021/06/15 10:38:41;;;;;;;;;;;33.60;49.00;;;;;;5094527;28;19903;-64
2021/06/15 10:41:07;;;;;;;;;;;34.00;47.90;;;;;;5094438;28;20280;-65
2021/06/15 10:43:36;;;;;;;;;;;34.40;47.60;;;;;;5094220;28;20351;-64
2021/06/15 10:46:13;;;;;;;;;;;34.70;47.50;;;;;;5094075;28;19908;-64
2021/06/15 10:48:46;;;;;;;;;;;35.70;46.70;;;;;;5094020;28;19904;-66
2021/06/15 10:51:22;;;;;;;;;;;36.70;45.90;;;;;;5094403;28;19904;-64
2021/06/15 10:53:48;;;;;;;;;;;36.30;46.10;;;;;;5094238;28;19904;-64
2021/06/15 10:56:15;;;;;;;;;;;36.50;46.00;;;;;;5093827;28;19930;-63
2021/06/15 10:58:44;;;;;;;;;;;36.90;46.00;;;;;;5093729;28;19930;-64
2021/06/15 11:01:41;;;;;;;;;;;37.20;44.90;;;;;;5093726;28;19905;-65
2021/06/15 11:04:08;;;;;;;;;;;37.80;44.40;;;;;;5070668;28;19908;-64
2021/06/15 11:06:33;;;;;;;;;;;38.20;43.80;;;;;;5093498;28;20362;-64
2021/06/15 11:09:05;;;;;;;;;;;38.50;43.50;;;;;;5094365;28;20002;-63
2021/06/15 11:11:31;;;;;;;;;;;37.90;42.30;;;;;;5093520;28;19954;-65
2021/06/15 11:14:04;;;;;;;;;;;36.40;43.30;;;;;;5093470;28;19910;-65
2021/06/15 11:16:32;;;;;;;;;;;34.70;45.10;;;;;;5093520;28;19949;-64
2021/06/15 11:21:44;;;;;;;;;;;33.40;47.00;;;;;;5093454;28;19939;-64
2021/06/15 11:24:24;;;;;;;;;;;32.50;48.00;;;;;;5093609;28;20352;-64
2021/06/15 11:27:11;;;;;;;;;;;31.60;50.30;;;;;;5093977;28;19970;-64
2021/06/15 11:29:38;;;;;;;;;;;31.10;51.50;;;;;;5086678;28;19959;-64
2021/06/15 11:32:16;;;;;;;;;;;30.80;51.30;;;;;;5094050;28;19930;-68
2021/06/15 11:34:41;;;;;;;;;;;30.30;52.30;;;;;;5093686;28;19953;-67
2021/06/15 11:37:33;;;;;;;;;;;30.10;52.50;;;;;;5093131;28;19911;-67
2021/06/15 11:40:10;;;;;;;;;;;30.10;52.50;;;;;;5093785;28;19904;-67
2021/06/15 11:42:36;;;;;;;;;;;30.10;51.90;;;;;;5093236;28;19908;-67
2021/06/15 11:45:11;;;;;;;;;;;30.00;52.20;;;;;;5093267;28;20318;-67
2021/06/15 11:47:39;;;;;;;;;;;30.00;52.40;;;;;;5093690;28;19914;-66
2021/06/15 11:50:07;;;;;;;;;;;29.80;52.40;;;;;;5093499;28;19990;-67
2021/06/15 11:52:33;;;;;;;;;;;29.70;52.70;;;;;;5093755;28;19908;-67
2021/06/15 11:54:59;;;;;;;;;;;29.60;52.70;;;;;;5093503;28;20267;-66
2021/06/15 11:57:25;;;;;;;;;;;29.50;52.90;;;;;;5093439;28;19904;-67
2021/06/15 11:59:51;;;;;;;;;;;29.50;52.70;;;;;;5093885;28;20284;-67
2021/06/15 12:02:22;;;;;;;;;;;29.60;51.90;;;;;;5092131;28;20000;-68
2021/06/15 12:05:03;;;;;;;;;;;29.70;51.60;;;;;;5093403;28;19955;-67
2021/06/15 12:07:29;;;;;;;;;;;29.70;51.20;;;;;;5092980;28;19903;-68
2021/06/15 12:10:07;;;;;;;;;;;29.60;49.40;;;;;;5092886;28;19904;-67
2021/06/15 12:12:51;;;;;;;;;;;29.60;48.80;;;;;;5092453;28;19907;-67
2021/06/15 12:15:26;;;;;;;;;;;29.70;48.50;;;;;;5092713;28;19911;-67
2021/06/15 12:17:52;;;;;;;;;;;29.70;48.50;;;;;;5092879;28;19973;-67
2021/06/15 12:20:22;;;;;;;;;;;29.50;48.80;;;;;;5093237;28;20337;-67
2021/06/15 12:22:48;;;;;;;;;;;29.50;48.50;;;;;;5096212;28;19904;-66
2021/06/15 12:25:13;;;;;;;;;;;29.40;49.00;;;;;;5096872;28;19946;-66
2021/06/15 12:27:39;;;;;;;;;;;29.30;49.10;;;;;;5096377;28;19904;-67
2021/06/15 12:30:05;;;;;;;;;;;29.30;49.60;;;;;;5096866;28;20044;-67
2021/06/15 12:32:44;;;;;;;;;;;29.40;49.10;;;;;;5096765;28;20236;-67
2021/06/15 12:35:18;;;;;;;;;;;29.50;48.90;;;;;;5096361;28;19906;-67
2021/06/15 12:37:44;;;;;;;;;;;29.60;48.50;;;;;;5096554;28;20320;-67
2021/06/15 12:40:11;;;;;;;;;;;29.60;48.20;;;;;;5096365;28;19911;-68
2021/06/15 12:42:36;;;;;;;;;;;29.70;48.20;;;;;;5097089;28;19938;-66
2021/06/15 12:45:02;;;;;;;;;;;29.80;49.50;;;;;;5096694;28;19915;-67
2021/06/15 12:47:28;;;;;;;;;;;29.80;48.80;;;;;;5096611;28;19904;-67
2021/06/15 12:49:55;;;;;;;;;;;29.80;47.70;;;;;;5096467;28;20320;-67
2021/06/15 12:52:21;;;;;;;;;;;29.80;47.70;;;;;;5096487;28;20357;-67
2021/06/15 12:54:47;;;;;;;;;;;29.70;48.20;;;;;;5096222;28;19994;-66
2021/06/15 12:57:16;;;;;;;;;;;29.90;48.00;;;;;;5096277;28;20361;-67
2021/06/15 12:59:42;;;;;;;;;;;30.00;48.50;;;;;;5096282;28;19904;-68
2021/06/15 13:02:14;;;;;;;;;;;30.00;46.30;;;;;;5096800;28;20346;-69
2021/06/15 13:04:51;;;;;;;;;;;30.00;45.40;;;;;;5096738;28;20339;-67
2021/06/15 13:07:17;;;;;;;;;;;30.00;47.00;;;;;;5096890;28;20345;-68
2021/06/15 13:09:43;;;;;;;;;;;29.90;47.90;;;;;;5095875;28;19908;-66
2021/06/15 13:12:10;;;;;;;;;;;29.90;48.40;;;;;;5096132;28;20323;-67
2021/06/15 13:14:43;;;;;;;;;;;29.80;48.40;;;;;;5095686;28;19960;-67
2021/06/15 13:17:11;;;;;;;;;;;29.80;48.20;;;;;;5095643;28;20325;-66
2021/06/15 13:19:37;;;;;;;;;;;30.00;47.30;;;;;;5094234;28;19908;-67
2021/06/15 13:22:02;;;;;;;;;;;29.90;45.30;;;;;;5095214;28;19990;-67
2021/06/15 13:24:35;;;;;;;;;;;30.00;44.80;;;;;;5094384;28;19962;-67
2021/06/15 13:27:19;;;;;;;;;;;30.10;45.30;;;;;;5095572;28;20044;-66
2021/06/15 13:29:45;;;;;;;;;;;30.20;44.60;;;;;;5095037;28;19935;-66
2021/06/15 13:32:29;;;;;;;;;;;30.30;44.30;;;;;;5095664;28;19927;-66
2021/06/15 13:35:07;;;;;;;;;;;30.40;45.20;;;;;;5094749;28;19911;-66
2021/06/15 13:37:35;;;;;;;;;;;30.30;43.50;;;;;;5095323;28;19908;-68
2021/06/15 13:40:01;;;;;;;;;;;30.30;43.40;;;;;;5095311;28;20356;-66
2021/06/15 13:42:28;;;;;;;;;;;30.30;43.80;;;;;;5094887;28;19953;-67
2021/06/15 13:45:01;;;;;;;;;;;30.20;45.60;;;;;;5094931;28;19912;-67
2021/06/15 13:47:26;;;;;;;;;;;30.10;45.20;;;;;;5095183;28;19904;-66
2021/06/15 13:49:52;;;;;;;;;;;30.10;45.50;;;;;;5095571;28;19904;-67
2021/06/15 13:52:17;;;;;;;;;;;30.10;45.20;;;;;;5095076;28;19911;-67
2021/06/15 13:54:43;;;;;;;;;;;30.20;45.60;;;;;;5094585;28;19908;-67
2021/06/15 13:57:08;;;;;;;;;;;30.30;45.50;;;;;;5095020;28;20361;-67
2021/06/15 13:59:34;;;;;;;;;;;30.50;45.60;;;;;;5110169;28;19957;-67
2021/06/15 14:01:59;;;;;;;;;;;30.50;45.70;;;;;;5094631;28;19904;-66
2021/06/15 14:04:25;;;;;;;;;;;30.50;45.30;;;;;;5094436;28;20252;-66
2021/06/15 14:06:50;;;;;;;;;;;30.60;44.30;;;;;;5094473;28;19908;-67
2021/06/15 14:09:16;;;;;;;;;;;30.70;44.40;;;;;;5094486;28;19998;-67
2021/06/15 14:11:41;;;;;;;;;;;30.70;44.20;;;;;;5094928;28;19904;-66
2021/06/15 14:14:07;;;;;;;;;;;30.80;44.10;;;;;;5094254;28;19904;-67
2021/06/15 14:16:32;;;;;;;;;;;30.70;44.00;;;;;;5094360;28;19907;-67
2021/06/15 14:18:58;;;;;;;;;;;30.80;43.60;;;;;;5094293;28;19911;-65
2021/06/15 14:21:23;;;;;;;;;;;30.80;43.30;;;;;;5094717;28;20273;-65
2021/06/15 14:23:49;;;;;;;;;;;30.80;44.20;;;;;;5095798;28;19953;-63